Lampasas, TX (76550)

4:36 AM CDT on October 23, 2014 (GMT -0500)
Lampasas | Change Station
CLOSE
Current Station
Airport
Location: Lampasas,
Elevation: 1214 ft
Nearby Weather Stations

Elev 1214 ft 31.11 °N, 98.20 °W | Updated 21 minutes ago

Overcast
Overcast
66 °F
Feels Like 66 °F
N
0
Wind Variable Wind from North

Today
High -- | Low -- °F
--% Chance of Precip.
Yesterday
High -- | Low -- °F
Precip. -- in
7:41 AM 6:52 PM
Waning Crescent, 0% visible
Pressure 30.09 in
Visibility 10.0 miles
Clouds Overcast 12000 ft
Dew Point 60 °F
Humidity 83%
Rainfall 0.00 in
Snow Depth Not available.
UV 0 out of 12
Pollen 6.20 out of 12
Ozone Good
PM2.5 Good
Flu Activity Sporadic
METAR KLZZ 230915Z AUTO 00000KT 10SM OVC120 19/16 A3009 RMK AO2 T01860157

More Conditions Fewer Conditions

Pressure 30.09 in
Visibility 10.0 miles
Clouds Overcast 12000 ft
Dew Point 60 °F
Humidity 83%
Rainfall 0.00 in
Snow Depth Not available.
UV 0 out of 12
Pollen 6.20 out of 12
Ozone Good
PM2.5 Good
Flu Activity Sporadic
METAR KLZZ 230915Z AUTO 00000KT 10SM OVC120 19/16 A3009 RMK AO2 T01860157

More Conditions Fewer Conditions

Nowcast | as of 3:12 am CDT on October 23, 2014

An area of light rain extending along the Interstate 35 corridor is moving east around 20 mph. Additional areas of light rain can be expected across the rest of the region early this morning as an upper level disturbance moves overhead. Rainfall totals from a trace to a few hundredths of an inch can be expected with this activity through 6 am.

×

10-Day Weather Forecast

Almanac

Astronomy

Oct. 23, 2014 Rise Set
Actual Time 7:41 AM CDT 6:52 PM CDT
Civil Twilight 7:16 AM CDT 7:17 PM CDT
Nautical Twilight 6:48 AM CDT 7:45 PM CDT
Astronomical Twilight 6:20 AM CDT 8:13 PM CDT
Moon 7:23 AM CDT 6:55 PM CDT
Length of Visible Light 12h 00m
Length of Day
11h 11m
Tomorrow will be 1m 45s shorter.
Waning Crescent, 0% of the Moon is Illuminated
Today
Waning Crescent
Oct 23
New
Oct 30
First Quarter
Nov 6
Full
Nov 14
Last Quarter

Today's Extremes

State Highs State Lows

Community

WunderPhotos

Upload Photos

1,764,199 photos uploaded!

Nearby

Air Quality

  Air Quality AQ Index Pollutant
Yesterday Moderate
PM2.5
Yesterday Good
OZONE
Current Good
PM2.5
Current Good
OZONE
Thursday Good
PM10
Thursday Moderate
OZONE
Friday Good
PM10
Friday Moderate
OZONE
Saturday Good
PM10
Saturday Moderate
OZONE

Snow Depth

Station Depth Elevation
No new snow has been reported.

Earthquake Activity

City Distance Mag. Time & Date
No recent earthquake activity has been reported nearby.
Minimum magnitude displayed is 2.5.

Coastal Water Temperatures

Place Temperature
No Stations Reporting

Nearby Weather Stations